Karachi Weather



Karachi's Current Weather

Temprature 21o haze

haze

Rain: 0 %

Min Temprature21o
Max Temprature21o
Humidity60
Wind Speed1.5 m/h
Sun Rise07:06:52
Sun Set17:44:01
Current Time: 12-Dec-2019 01:28:12
Lat/Lon: 24.87, 67.03




Karachi's Geo Location



Karachi's Weather Forecast

Time Overall Temp Min Temp Max Temp Humidity Wind Speed Rain
12-Dec-2019 (Thu)
02:00:00 scattered clouds 19.710 19.710 20.980 53 1.44 m/h 0 %
05:00:00 few clouds 18.870 18.870 19.820 58 0.64 m/h 0 %
08:00:00 few clouds 20.210 20.210 20.850 55 0.83 m/h 0 %
11:00:00 clear sky 23.740 23.740 24.060 44 1.75 m/h 0 %
14:00:00 scattered clouds 25.370 25.370 25.370 40 2.25 m/h 0 %
17:00:00 broken clouds 24.340 24.340 24.340 42 2.76 m/h 0 %
20:00:00 broken clouds 21.260 21.260 21.260 47 4.01 m/h 0 %
23:00:00 scattered clouds 20.120 20.120 20.120 51 3.06 m/h 0 %
13-Dec-2019 (Fri)
02:00:00 clear sky 18.950 18.950 18.950 54 3.65 m/h 0 %
05:00:00 clear sky 17.690 17.690 17.690 60 3.57 m/h 0 %
08:00:00 clear sky 17.620 17.620 17.620 61 3.48 m/h 0 %
11:00:00 clear sky 21.710 21.710 21.710 48 1.83 m/h 0 %
14:00:00 clear sky 24.770 24.770 24.770 37 0.7 m/h 0 %
17:00:00 clear sky 22.780 22.780 22.780 52 5.57 m/h 0 %
20:00:00 clear sky 21.040 21.040 21.040 62 2.77 m/h 0 %
23:00:00 clear sky 19.840 19.840 19.840 67 1.46 m/h 0 %
14-Dec-2019 (Sat)
02:00:00 scattered clouds 18.780 18.780 18.780 70 0.76 m/h 0 %
05:00:00 broken clouds 18.410 18.410 18.410 71 0.71 m/h 0 %
08:00:00 broken clouds 19.560 19.560 19.560 66 0.03 m/h 0 %
11:00:00 scattered clouds 24.190 24.190 24.190 46 1.27 m/h 0 %
14:00:00 clear sky 26.440 26.440 26.440 34 1.76 m/h 0 %
17:00:00 clear sky 24.520 24.520 24.520 44 5.37 m/h 0 %
20:00:00 few clouds 22.550 22.550 22.550 55 2.7 m/h 0 %
23:00:00 scattered clouds 21.580 21.580 21.580 36 2.71 m/h 0 %
15-Dec-2019 (Sun)
02:00:00 scattered clouds 20.790 20.790 20.790 34 3.12 m/h 0 %
05:00:00 few clouds 18.970 18.970 18.970 39 5.18 m/h 0 %
08:00:00 clear sky 18.850 18.850 18.850 37 5.82 m/h 0 %
11:00:00 clear sky 24.070 24.070 24.070 23 6.15 m/h 0 %
14:00:00 clear sky 25.660 25.660 25.660 22 4.94 m/h 0 %
17:00:00 clear sky 24.670 24.670 24.670 24 5.5 m/h 0 %
20:00:00 clear sky 21.710 21.710 21.710 29 4.08 m/h 0 %
23:00:00 clear sky 20.290 20.290 20.290 33 4.8 m/h 0 %
16-Dec-2019 (Mon)
02:00:00 clear sky 19.030 19.030 19.030 37 4.94 m/h 0 %
05:00:00 clear sky 18.100 18.100 18.100 39 4.83 m/h 0 %
08:00:00 clear sky 18.110 18.110 18.110 38 4.83 m/h 0 %
11:00:00 clear sky 23.350 23.350 23.350 27 5.47 m/h 0 %
14:00:00 clear sky 25.070 25.070 25.070 26 4.9 m/h 0 %
17:00:00 clear sky 24.450 24.450 24.450 27 4.58 m/h 0 %
20:00:00 clear sky 20.910 20.910 20.910 33 3.93 m/h 0 %
23:00:00 clear sky 19.480 19.480 19.480 36 4.75 m/h 0 %

Famous Cities (61)